Time;durP1;ratioP1;P1;durP2;ratioP2;P2;SDS_P1;SDS_P2;PMS_P1;PMS_P2;Temp;Humidity;BMP_temperature;BMP_pressure;BME280_temperature;BME280_humidity;BME280_pressure;Samples;Min_cycle;Max_cycle;Signal;HPM_P1;HPM_P2
2022/12/04 00:00:07;;;;;;;;;26.50;22.75;;;;;4.67;66.87;100984.47;5097898;27;45377;-47
2022/12/04 00:02:33;;;;;;;;;30.00;28.50;;;;;4.67;67.18;100977.41;5097380;27;46504;-47
2022/12/04 00:04:58;;;;;;;;;26.25;19.50;;;;;4.65;67.76;100981.94;5097083;27;45403;-48
2022/12/04 00:07:24;;;;;;;;;30.75;27.50;;;;;4.63;67.06;100972.44;5097963;27;45307;-48
2022/12/04 00:09:49;;;;;;;;;35.75;30.00;;;;;4.59;67.09;100974.44;5097962;27;45298;-48
2022/12/04 00:12:14;;;;;;;;;31.75;26.25;;;;;4.61;67.21;100977.84;5097482;27;45320;-47
2022/12/04 00:14:40;;;;;;;;;40.75;30.50;;;;;4.60;67.18;100962.97;5097532;27;45332;-47
2022/12/04 00:17:05;;;;;;;;;26.75;20.00;;;;;4.60;68.03;100962.97;5097761;27;45385;-48
2022/12/04 00:19:30;;;;;;;;;47.25;32.50;;;;;4.66;67.96;100978.38;5097709;27;45464;-52
2022/12/04 00:21:56;;;;;;;;;39.00;22.50;;;;;4.63;67.80;100964.53;5097242;27;47129;-47
2022/12/04 00:24:21;;;;;;;;;30.50;29.00;;;;;4.66;67.81;100969.63;5097198;27;45415;-50
2022/12/04 00:26:46;;;;;;;;;46.75;30.50;;;;;4.68;67.51;100973.84;5097445;27;45368;-49
2022/12/04 00:29:12;;;;;;;;;41.50;29.00;;;;;4.68;67.97;100976.47;5097367;27;45369;-49
2022/12/04 00:31:39;;;;;;;;;27.25;23.50;;;;;4.63;66.97;100969.81;5097295;27;45376;-46
2022/12/04 00:34:04;;;;;;;;;36.00;21.00;;;;;4.63;67.85;100977.72;5097364;27;45507;-51
2022/12/04 00:36:29;;;;;;;;;35.00;23.50;;;;;4.61;67.84;100971.72;5097332;27;45455;-51
2022/12/04 00:38:57;;;;;;;;;30.25;24.50;;;;;4.59;67.24;100966.53;5097613;27;45406;-50
2022/12/04 00:41:25;;;;;;;;;38.50;30.00;;;;;4.60;67.41;100962.13;5096689;27;47366;-53
2022/12/04 00:43:51;;;;;;;;;40.25;30.00;;;;;4.59;67.53;100958.63;5097039;27;45286;-53
2022/12/04 00:46:16;;;;;;;;;31.75;22.00;;;;;4.61;67.23;100967.28;5097032;27;45530;-58
2022/12/04 00:48:42;;;;;;;;;32.50;26.00;;;;;4.57;67.48;100955.28;5097007;27;45331;-48
2022/12/04 00:51:11;;;;;;;;;39.75;28.75;;;;;4.56;67.29;100964.13;5111127;27;46495;-54
2022/12/04 00:53:37;;;;;;;;;38.75;27.50;;;;;4.56;67.52;100965.91;5101213;27;45377;-53
2022/12/04 00:56:05;;;;;;;;;30.25;26.25;;;;;4.55;67.51;100972.13;5097063;27;45259;-54
2022/12/04 00:58:31;;;;;;;;;36.75;31.25;;;;;4.56;68.19;100969.41;5097298;27;45480;-53
2022/12/04 01:01:08;;;;;;;;;38.75;22.75;;;;;4.57;67.19;100971.06;5097003;27;45976;-52
2022/12/04 01:03:34;;;;;;;;;40.25;27.75;;;;;4.57;67.52;100968.44;5096967;27;45404;-48
2022/12/04 01:06:00;;;;;;;;;33.75;24.25;;;;;4.56;67.68;100972.03;5096938;27;45404;-52
2022/12/04 01:08:25;;;;;;;;;26.50;20.75;;;;;4.57;67.86;100967.59;5097118;27;45303;-53
2022/12/04 01:10:50;;;;;;;;;36.75;27.75;;;;;4.56;67.61;100969.41;5097039;27;46188;-51
2022/12/04 01:13:16;;;;;;;;;37.00;26.25;;;;;4.54;68.05;100952.84;5097291;27;45405;-53
2022/12/04 01:15:42;;;;;;;;;31.00;20.50;;;;;4.54;67.17;100954.63;5100594;27;45486;-50
2022/12/04 01:18:09;;;;;;;;;29.25;23.25;;;;;4.54;67.38;100959.91;5100706;27;45550;-54
2022/12/04 01:20:35;;;;;;;;;44.00;27.00;;;;;4.54;68.31;100960.75;5100259;27;45355;-54
2022/12/04 01:23:00;;;;;;;;;34.50;23.25;;;;;4.55;67.49;100964.22;5100376;27;45253;-49
2022/12/04 01:25:26;;;;;;;;;30.75;25.00;;;;;4.56;67.60;100956.22;5100584;27;45328;-55
2022/12/04 01:27:51;;;;;;;;;33.50;24.75;;;;;4.57;67.52;100959.69;5100581;27;45490;-54
2022/12/04 01:30:16;;;;;;;;;34.25;26.00;;;;;4.50;67.62;100948.72;5100301;27;45375;-53
2022/12/04 01:32:42;;;;;;;;;45.00;24.75;;;;;4.56;68.25;100955.38;5100332;27;45331;-54
2022/12/04 01:35:07;;;;;;;;;28.75;26.50;;;;;4.51;67.78;100942.53;5100290;27;45243;-54
2022/12/04 01:37:33;;;;;;;;;32.50;28.75;;;;;4.51;67.82;100950.44;5100350;27;45235;-53
2022/12/04 01:39:58;;;;;;;;;28.50;25.75;;;;;4.49;68.03;100958.41;5098532;27;47541;-57
2022/12/04 01:42:24;;;;;;;;;35.25;26.25;;;;;4.50;68.52;100949.56;5099952;27;45298;-54
2022/12/04 01:45:27;;;;;;;;;40.25;26.75;;;;;4.52;67.95;100953.91;5100100;27;45444;-54
2022/12/04 01:47:56;;;;;;;;;41.00;28.75;;;;;4.55;68.02;100959.81;5099931;27;45349;-53
2022/12/04 01:50:22;;;;;;;;;31.75;24.50;;;;;4.57;67.76;100952.63;5099726;27;45299;-51
2022/12/04 01:52:48;;;;;;;;;42.25;27.50;;;;;4.58;68.07;100959.59;5099791;27;46070;-51
2022/12/04 01:55:13;;;;;;;;;28.75;28.75;;;;;4.60;67.90;100967.41;5100014;27;45234;-52
2022/12/04 01:57:39;;;;;;;;;46.50;32.75;;;;;4.57;68.52;100963.19;5099804;27;45507;-51
2022/12/04 02:00:10;;;;;;;;;35.75;30.25;;;;;4.52;68.39;100949.47;5099775;27;46114;-49
2022/12/04 02:02:38;;;;;;;;;42.00;28.50;;;;;4.56;67.64;100956.22;5099694;27;45315;-48
2022/12/04 02:05:07;;;;;;;;;30.50;22.00;;;;;4.56;67.93;100956.22;5099652;27;45228;-47
2022/12/04 02:07:33;;;;;;;;;32.25;27.25;;;;;4.58;68.10;100959.59;5099764;27;45424;-53
2022/12/04 02:10:05;;;;;;;;;37.25;26.50;;;;;4.60;67.92;100957.72;5099470;27;45470;-49
2022/12/04 02:13:01;;;;;;;;;35.25;25.25;;;;;4.60;68.12;100952.44;5099485;27;45394;-49
2022/12/04 02:16:04;;;;;;;;;45.25;28.50;;;;;4.60;68.34;100956.88;5099474;27;45290;-54
2022/12/04 02:18:32;;;;;;;;;33.75;22.75;;;;;4.59;67.45;100955.16;5099721;27;45383;-55
2022/12/04 02:21:17;;;;;;;;;40.25;26.50;;;;;4.59;67.83;100965.69;5099005;27;45462;-53
2022/12/04 02:24:01;;;;;;;;;31.50;25.00;;;;;4.54;67.80;100952.84;5099302;27;45322;-54
2022/12/04 02:26:37;;;;;;;;;33.00;25.00;;;;;4.58;67.47;100959.59;5098296;27;45212;-51
2022/12/04 02:29:21;;;;;;;;;42.25;27.00;;;;;4.58;68.39;100954.31;5099418;27;45403;-51
2022/12/04 02:31:46;;;;;;;;;40.75;31.50;;;;;4.59;67.92;100953.38;5099191;27;46236;-51
2022/12/04 02:34:22;;;;;;;;;36.00;29.00;;;;;4.58;67.98;100951.69;5099113;27;45296;-49
2022/12/04 02:36:57;;;;;;;;;29.50;26.25;;;;;4.60;68.23;100952.44;5099218;27;45278;-55
2022/12/04 02:39:34;;;;;;;;;36.00;26.50;;;;;4.62;68.08;100949.69;5099191;27;45313;-51
2022/12/04 02:42:20;;;;;;;;;37.75;32.25;;;;;4.61;67.73;100940.94;5099008;27;47246;-50
2022/12/04 02:44:52;;;;;;;;;41.75;32.25;;;;;4.58;68.19;100945.56;5098945;27;45487;-49
2022/12/04 02:47:21;;;;;;;;;43.25;29.25;;;;;4.59;67.71;100956.00;5098804;27;45464;-54
2022/12/04 02:49:54;;;;;;;;;26.50;24.25;;;;;4.48;68.18;100937.44;5099067;27;45294;-51
2022/12/04 02:52:24;;;;;;;;;38.00;28.25;;;;;4.59;67.51;100961.25;5098647;27;46235;-51
2022/12/04 02:54:56;;;;;;;;;50.50;30.25;;;;;4.59;67.50;100948.09;5098466;27;45376;-54
2022/12/04 02:57:27;;;;;;;;;46.75;35.75;;;;;4.60;67.97;100960.34;5098864;27;45439;-53
2022/12/04 02:59:56;;;;;;;;;42.50;34.00;;;;;4.55;68.19;100953.69;5099009;27;45391;-48
2022/12/04 03:02:34;;;;;;;;;39.25;27.00;;;;;4.57;67.95;100952.63;5098698;27;46252;-47
2022/12/04 03:05:04;;;;;;;;;41.25;35.50;;;;;4.56;67.29;100952.75;5098533;27;45440;-55
2022/12/04 03:07:36;;;;;;;;;39.00;31.00;;;;;4.54;68.37;100954.63;5098602;27;45368;-46
2022/12/04 03:10:07;;;;;;;;;35.25;27.00;;;;;4.54;68.25;100942.28;5098736;27;46136;-51
2022/12/04 03:12:42;;;;;;;;;48.25;31.00;;;;;4.57;68.49;100942.09;5098320;27;46235;-55
2022/12/04 03:15:21;;;;;;;;;25.50;23.75;;;;;4.61;67.74;100937.47;5098459;27;45242;-51
2022/12/04 03:17:54;;;;;;;;;31.00;27.00;;;;;4.62;67.73;100945.25;5098650;27;45319;-53
2022/12/04 03:20:21;;;;;;;;;45.50;33.00;;;;;4.53;67.90;100916.91;5098542;27;45277;-51
2022/12/04 03:22:53;;;;;;;;;41.00;34.75;;;;;4.63;67.93;100938.19;5098321;27;46271;-50
2022/12/04 03:25:22;;;;;;;;;36.00;32.00;;;;;4.59;67.90;100926.19;5098431;27;45309;-48
2022/12/04 03:27:56;;;;;;;;;39.25;34.75;;;;;4.60;68.13;100930.53;5098948;27;45404;-54
2022/12/04 03:30:22;;;;;;;;;43.00;27.00;;;;;4.61;68.40;100925.13;5099258;27;45348;-54
2022/12/04 03:32:54;;;;;;;;;31.75;23.00;;;;;4.61;67.89;100927.78;5099149;27;46110;-50
2022/12/04 03:35:32;;;;;;;;;31.25;26.00;;;;;4.59;67.65;100924.38;5098240;27;45449;-51
2022/12/04 03:38:19;;;;;;;;;35.50;28.75;;;;;4.61;68.06;100926.94;5097690;27;45386;-53
2022/12/04 03:41:19;;;;;;;;;45.00;29.75;;;;;4.52;68.04;100917.84;5098425;27;45365;-50
2022/12/04 03:44:04;;;;;;;;;40.00;32.50;;;;;4.60;67.97;100919.97;5098193;27;46035;-50
2022/12/04 03:46:40;;;;;;;;;48.50;30.50;;;;;4.60;67.93;100928.72;5097744;27;45450;-49
2022/12/04 03:49:16;;;;;;;;;31.00;26.25;;;;;4.63;67.71;100914.47;5097986;27;45370;-54
2022/12/04 03:52:03;;;;;;;;;33.50;23.75;;;;;4.63;68.13;100912.69;5096424;27;45222;-53
2022/12/04 03:54:37;;;;;;;;;34.25;25.75;;;;;4.64;68.19;100906.50;5097902;27;45426;-50
2022/12/04 03:57:12;;;;;;;;;32.00;29.75;;;;;4.67;67.67;100905.41;5097745;27;45381;-47
2022/12/04 03:59:57;;;;;;;;;40.00;32.25;;;;;4.69;68.15;100890.38;5096454;27;45352;-51
2022/12/04 04:02:29;;;;;;;;;33.50;28.50;;;;;4.66;68.02;100878.22;5098278;27;45346;-54
2022/12/04 04:04:59;;;;;;;;;39.25;25.00;;;;;4.68;67.92;100871.09;5097575;27;46002;-49
2022/12/04 04:07:36;;;;;;;;;38.00;26.75;;;;;4.66;67.99;100865.06;5097504;27;45342;-49
2022/12/04 04:10:12;;;;;;;;;38.25;28.25;;;;;4.67;68.10;100864.09;5097775;27;45267;-55
2022/12/04 04:24:42;;;;;;;;;37.00;31.50;;;;;4.65;67.76;100844.94;5074910;28;45435;-51
2022/12/04 04:27:07;;;;;;;;;41.00;28.50;;;;;4.65;68.31;100839.66;5074671;28;47013;-51
2022/12/04 04:29:33;;;;;;;;;26.75;18.50;;;;;4.65;67.92;100842.31;5074651;28;45372;-49
2022/12/04 04:32:10;;;;;;;;;25.50;22.00;;;;;4.67;67.49;100861.47;5074996;28;45347;-55
2022/12/04 04:34:47;;;;;;;;;44.00;30.25;;;;;4.65;67.71;100871.28;5074951;28;45386;-50
2022/12/04 04:37:47;;;;;;;;;38.25;36.00;;;;;4.66;68.36;100869.50;5074374;28;47205;-45
2022/12/04 04:40:33;;;;;;;;;44.00;31.25;;;;;4.64;67.61;100860.88;5074469;28;45305;-46
2022/12/04 04:43:13;;;;;;;;;51.75;33.25;;;;;4.66;68.35;100864.22;5074526;27;45385;-51
2022/12/04 04:45:41;;;;;;;;;28.00;24.75;;;;;4.67;68.15;100853.56;5074773;27;45339;-47
2022/12/04 04:48:18;;;;;;;;;40.75;29.75;;;;;4.68;67.40;100851.78;5074776;28;47370;-47
2022/12/04 04:50:44;;;;;;;;;30.75;26.75;;;;;4.68;67.64;100850.00;5095903;27;45348;-49
2022/12/04 04:53:25;;;;;;;;;42.75;32.00;;;;;4.66;68.14;100865.06;5100663;27;45330;-46
2022/12/04 04:55:51;;;;;;;;;47.25;29.50;;;;;4.67;68.25;100874.63;5101013;27;45423;-47
2022/12/04 04:58:19;;;;;;;;;38.25;29.50;;;;;4.69;67.72;100866.66;5100676;27;46411;-46
2022/12/04 05:00:55;;;;;;;;;38.00;28.75;;;;;4.69;67.78;100862.22;5100526;27;45435;-48
2022/12/04 05:03:21;;;;;;;;;40.00;31.25;;;;;4.68;67.49;100860.53;5100835;27;45437;-46
2022/12/04 05:05:46;;;;;;;;;34.50;29.50;;;;;4.63;67.65;100854.72;5100699;27;45511;-47
2022/12/04 05:08:11;;;;;;;;;36.00;27.75;;;;;4.66;67.73;100861.59;5100345;27;45406;-47
2022/12/04 05:10:37;;;;;;;;;38.50;28.00;;;;;4.63;67.61;100867.91;5100469;27;45415;-47
2022/12/04 05:13:02;;;;;;;;;38.25;29.50;;;;;4.61;68.23;100871.59;5100534;27;45432;-47
2022/12/04 05:15:27;;;;;;;;;49.25;36.25;;;;;4.59;68.28;100871.69;5100831;27;45452;-48
2022/12/04 05:17:53;;;;;;;;;37.75;30.25;;;;;4.58;67.96;100875.28;5100425;27;46572;-49
2022/12/04 05:20:18;;;;;;;;;28.25;22.00;;;;;4.57;67.86;100860.44;5100136;27;45293;-47
2022/12/04 05:22:43;;;;;;;;;40.75;30.00;;;;;4.59;67.77;100861.16;5100336;27;45261;-46
2022/12/04 05:25:09;;;;;;;;;43.25;29.25;;;;;4.63;67.93;100864.41;5100488;27;45197;-52
2022/12/04 05:27:35;;;;;;;;;42.00;30.75;;;;;4.64;67.87;100874.03;5100047;27;46235;-48
2022/12/04 05:30:00;;;;;;;;;49.50;33.75;;;;;4.64;68.57;100881.94;5100110;27;45360;-46
2022/12/04 05:32:28;;;;;;;;;36.75;26.00;;;;;4.64;67.64;100871.41;5100197;27;45289;-47
2022/12/04 05:34:54;;;;;;;;;32.50;22.00;;;;;4.64;68.16;100864.34;5100347;27;45322;-47
2022/12/04 05:37:21;;;;;;;;;34.25;28.00;;;;;4.63;67.94;100878.44;5099793;27;46194;-50
2022/12/04 05:39:46;;;;;;;;;36.50;25.75;;;;;4.61;68.13;100884.78;5100318;27;45456;-47
2022/12/04 05:42:12;;;;;;;;;39.50;31.75;;;;;4.64;68.18;100895.13;5100015;27;45305;-48
2022/12/04 05:44:38;;;;;;;;;35.50;29.50;;;;;4.61;68.78;100890.88;5100471;27;45436;-54
2022/12/04 05:47:04;;;;;;;;;43.50;31.50;;;;;4.63;67.63;100907.41;5099763;27;46326;-54
2022/12/04 05:49:31;;;;;;;;;36.75;29.75;;;;;4.66;67.52;100915.13;5099810;27;45658;-46
2022/12/04 05:51:57;;;;;;;;;38.50;30.25;;;;;4.63;68.38;100903.94;5099996;27;45410;-49
2022/12/04 05:54:22;;;;;;;;;39.00;27.50;;;;;4.62;68.46;100904.91;5100640;27;45377;-51
2022/12/04 05:56:47;;;;;;;;;47.75;28.25;;;;;4.65;67.37;100917.88;5100359;27;46992;-54
2022/12/04 05:59:14;;;;;;;;;28.75;27.00;;;;;4.66;67.89;100917.75;5100356;27;45276;-54
2022/12/04 06:01:39;;;;;;;;;37.25;27.00;;;;;4.59;68.16;100905.09;5100298;27;45316;-50
2022/12/04 06:04:05;;;;;;;;;39.00;30.50;;;;;4.65;68.17;100921.34;5100694;27;45362;-46
2022/12/04 06:06:30;;;;;;;;;47.25;30.25;;;;;4.69;67.75;100930.72;5100545;27;47045;-46
2022/12/04 06:08:57;;;;;;;;;43.25;34.00;;;;;4.58;67.61;100906.91;5100037;27;45219;-50
2022/12/04 06:11:25;;;;;;;;;36.00;29.25;;;;;4.65;67.92;100913.44;5100634;27;45384;-53
2022/12/04 06:13:51;;;;;;;;;30.00;23.00;;;;;4.53;68.29;100887.94;5100434;27;45453;-50
2022/12/04 06:16:20;;;;;;;;;37.00;29.75;;;;;4.64;67.66;100909.13;5099504;27;46158;-50
2022/12/04 06:18:51;;;;;;;;;57.25;41.00;;;;;4.62;68.39;100918.91;5099413;27;45356;-47
2022/12/04 06:21:17;;;;;;;;;49.00;33.75;;;;;4.62;68.63;100913.66;5099512;27;45266;-48
2022/12/04 06:23:42;;;;;;;;;36.00;31.50;;;;;4.60;67.84;100906.81;5099471;27;45595;-47
2022/12/04 06:26:08;;;;;;;;;39.25;34.00;;;;;4.52;68.22;100880.97;5099456;27;45309;-49
2022/12/04 06:28:34;;;;;;;;;47.25;35.75;;;;;4.63;67.74;100899.50;5099752;27;45410;-49
2022/12/04 06:31:06;;;;;;;;;42.00;30.75;;;;;4.64;68.03;100914.41;5100040;27;45343;-51
2022/12/04 06:33:31;;;;;;;;;38.75;30.25;;;;;4.67;68.46;100913.31;5100413;27;45357;-48
2022/12/04 06:36:05;;;;;;;;;43.25;33.75;;;;;4.66;68.30;100912.47;5099847;27;45364;-48
2022/12/04 06:38:30;;;;;;;;;51.50;33.00;;;;;4.66;68.66;100907.22;5099976;27;45384;-48
2022/12/04 06:40:56;;;;;;;;;47.75;36.00;;;;;4.68;68.07;100922.94;5099145;27;45269;-46
2022/12/04 06:43:22;;;;;;;;;33.75;27.50;;;;;4.69;68.24;100927.25;5099201;27;45409;-47
2022/12/04 06:45:48;;;;;;;;;36.50;30.25;;;;;4.65;68.35;100918.72;5098935;27;46199;-48
2022/12/04 06:48:13;;;;;;;;;39.75;30.75;;;;;4.67;68.39;100926.50;5098753;27;45457;-46
2022/12/04 06:50:39;;;;;;;;;35.00;28.00;;;;;4.70;68.35;100927.13;5099131;27;45874;-50
2022/12/04 06:53:04;;;;;;;;;33.25;32.00;;;;;4.67;68.47;100924.72;5099112;27;45317;-49
2022/12/04 06:55:30;;;;;;;;;44.25;35.25;;;;;4.73;68.81;100934.00;5098679;27;45390;-51
2022/12/04 06:57:55;;;;;;;;;32.25;24.25;;;;;4.75;68.48;100932.09;5099035;27;45433;-50
2022/12/04 07:00:20;;;;;;;;;26.75;24.75;;;;;4.75;68.07;100930.31;5099173;27;45368;-54
2022/12/04 07:02:46;;;;;;;;;32.50;26.50;;;;;4.77;68.45;100916.19;5099231;27;45445;-49
2022/12/04 07:05:11;;;;;;;;;43.00;34.00;;;;;4.75;68.48;100927.66;5098715;27;46876;-54
2022/12/04 07:07:36;;;;;;;;;41.25;27.00;;;;;4.77;68.43;100929.38;5098611;27;45308;-52
2022/12/04 07:10:03;;;;;;;;;52.50;34.75;;;;;4.76;68.62;100933.78;5098753;27;45469;-52
2022/12/04 07:12:28;;;;;;;;;35.25;30.75;;;;;4.75;68.52;100930.31;5098223;27;45392;-50
2022/12/04 07:14:54;;;;;;;;;36.75;27.25;;;;;4.79;68.55;100938.00;5098734;27;45299;-47
2022/12/04 07:17:19;;;;;;;;;43.75;32.75;;;;;4.78;68.21;100923.16;5098650;27;45436;-49
2022/12/04 07:19:44;;;;;;;;;40.00;27.75;;;;;4.80;68.50;100926.50;5098671;27;45233;-49
2022/12/04 07:22:10;;;;;;;;;38.50;34.00;;;;;4.80;68.99;100935.25;5097390;27;45439;-48
2022/12/04 07:24:38;;;;;;;;;37.00;29.75;;;;;4.69;68.50;100914.09;5098249;27;46162;-52
2022/12/04 07:27:04;;;;;;;;;39.50;31.75;;;;;4.78;68.83;100933.69;5098578;27;45344;-50
2022/12/04 07:29:30;;;;;;;;;42.00;36.25;;;;;4.79;68.84;100930.94;5098280;27;45441;-50
2022/12/04 07:31:56;;;;;;;;;38.25;28.50;;;;;4.82;68.37;100940.44;5098634;27;45344;-48
2022/12/04 07:34:22;;;;;;;;;46.00;34.50;;;;;4.83;68.94;100936.84;5098120;27;45324;-51
2022/12/04 07:36:47;;;;;;;;;31.75;24.50;;;;;4.81;68.85;100944.03;5098170;27;45363;-51
2022/12/04 07:39:12;;;;;;;;;44.00;33.25;;;;;4.81;68.02;100936.13;5098258;27;45337;-50
2022/12/04 07:41:38;;;;;;;;;37.25;32.00;;;;;4.83;68.22;100929.78;5098488;27;45451;-51
2022/12/04 07:44:04;;;;;;;;;39.50;34.25;;;;;4.83;68.83;100934.22;5098276;27;46186;-49
2022/12/04 07:46:29;;;;;;;;;47.25;35.00;;;;;4.79;68.28;100919.56;5097975;27;45287;-47
2022/12/04 07:48:56;;;;;;;;;48.25;34.75;;;;;4.83;68.48;100934.22;5098092;27;45400;-49
2022/12/04 07:51:24;;;;;;;;;50.75;35.75;;;;;4.82;68.93;100920.19;5098238;27;45333;-50
2022/12/04 07:53:52;;;;;;;;;48.00;36.00;;;;;4.82;69.03;100920.19;5097821;27;46210;-49
2022/12/04 07:56:18;;;;;;;;;52.00;34.75;;;;;4.80;68.34;100908.06;5098024;27;45275;-51
2022/12/04 07:58:44;;;;;;;;;42.50;34.50;;;;;4.86;68.36;100923.47;5098010;27;45240;-47
2022/12/04 08:01:12;;;;;;;;;42.25;26.25;;;;;4.91;69.03;100919.56;5097997;27;45511;-49
2022/12/04 08:03:39;;;;;;;;;49.00;38.75;;;;;4.92;69.08;100913.31;5097495;27;46664;-49
2022/12/04 08:06:05;;;;;;;;;34.75;27.00;;;;;4.93;68.95;100914.16;5097792;27;45365;-52
2022/12/04 08:08:31;;;;;;;;;37.75;28.00;;;;;4.97;68.21;100920.91;5097616;27;45403;-49
2022/12/04 08:10:57;;;;;;;;;44.25;35.75;;;;;4.86;68.29;100903.22;5097741;27;45446;-49
2022/12/04 08:13:22;;;;;;;;;48.25;30.50;;;;;4.97;68.67;100898.06;5097605;27;45301;-50
2022/12/04 08:15:48;;;;;;;;;46.50;34.50;;;;;5.00;68.35;100912.81;5097680;27;45207;-52
2022/12/04 08:18:13;;;;;;;;;54.75;37.25;;;;;4.99;68.78;100901.41;5097736;27;45368;-48
2022/12/04 08:20:39;;;;;;;;;54.75;41.00;;;;;5.04;68.12;100905.53;5098038;27;45191;-52
2022/12/04 08:23:04;;;;;;;;;48.25;39.75;;;;;5.04;68.33;100913.44;5097359;27;45393;-48
2022/12/04 08:25:30;;;;;;;;;46.00;32.50;;;;;5.01;68.51;100901.28;5097846;27;45325;-53
2022/12/04 08:27:55;;;;;;;;;54.25;39.50;;;;;5.04;67.97;100916.91;5097646;27;45229;-55
2022/12/04 08:30:21;;;;;;;;;50.75;38.50;;;;;5.06;68.44;100917.66;5097876;27;45527;-52
2022/12/04 08:32:47;;;;;;;;;43.00;35.75;;;;;5.07;68.33;100914.06;5097302;27;47002;-53
2022/12/04 08:35:12;;;;;;;;;56.50;37.25;;;;;5.06;68.12;100917.66;5097432;27;45238;-55
2022/12/04 08:37:37;;;;;;;;;52.25;38.75;;;;;5.08;67.90;100918.38;5096286;27;45586;-46
2022/12/04 08:40:03;;;;;;;;;50.50;37.00;;;;;5.09;68.43;100927.13;5097456;27;45315;-53
2022/12/04 08:42:29;;;;;;;;;48.00;36.25;;;;;5.11;68.64;100931.38;5097122;27;46156;-50
2022/12/04 08:44:54;;;;;;;;;44.50;34.75;;;;;5.08;68.20;100923.66;5097165;27;45269;-48
2022/12/04 08:47:19;;;;;;;;;54.50;35.00;;;;;4.97;67.96;100902.47;5097232;27;45525;-51
2022/12/04 08:49:45;;;;;;;;;52.25;40.50;;;;;5.10;68.22;100929.69;5097463;27;45505;-52
2022/12/04 08:52:10;;;;;;;;;46.25;36.00;;;;;5.12;67.82;100938.31;5096620;27;46182;-49
2022/12/04 08:54:36;;;;;;;;;52.25;40.25;;;;;5.12;68.08;100937.47;5097214;27;45909;-54
2022/12/04 08:57:01;;;;;;;;;41.50;33.50;;;;;5.16;68.24;100942.44;5097322;27;45417;-52
2022/12/04 08:59:27;;;;;;;;;46.75;36.25;;;;;5.14;68.29;100941.72;5097412;27;45280;-57
2022/12/04 09:01:52;;;;;;;;;47.25;38.00;;;;;5.13;67.57;100936.53;5097187;27;46044;-46
2022/12/04 09:04:18;;;;;;;;;55.25;38.25;;;;;5.16;68.06;100939.78;5097135;27;45156;-48
2022/12/04 09:06:43;;;;;;;;;51.75;38.75;;;;;5.06;67.69;100917.66;5097132;27;45207;-45
2022/12/04 09:09:09;;;;;;;;;60.75;39.50;;;;;5.16;68.36;100931.88;5097287;27;45415;-45
2022/12/04 09:11:34;;;;;;;;;51.00;37.25;;;;;5.17;67.92;100935.34;5097251;27;46395;-45
2022/12/04 09:14:01;;;;;;;;;52.75;37.00;;;;;5.17;67.51;100940.63;5096725;27;45345;-48
2022/12/04 09:16:26;;;;;;;;;62.75;43.50;;;;;5.15;67.73;100934.63;5095762;27;45377;-49
2022/12/04 09:18:51;;;;;;;;;45.50;35.75;;;;;5.15;67.96;100932.84;5097120;27;45391;-48
2022/12/04 09:21:19;;;;;;;;;52.50;36.50;;;;;5.16;67.68;100942.44;5096858;27;46326;-56
2022/12/04 09:23:45;;;;;;;;;50.25;33.25;;;;;5.11;67.81;100928.72;5096596;27;45507;-48
2022/12/04 09:26:18;;;;;;;;;52.50;41.75;;;;;5.16;67.49;100929.25;5096964;27;45313;-50
2022/12/04 09:28:44;;;;;;;;;52.00;38.75;;;;;5.16;67.63;100931.88;5096931;27;45368;-48
2022/12/04 09:31:10;;;;;;;;;49.75;37.00;;;;;5.21;67.85;100926.28;5096677;27;45348;-48
2022/12/04 09:33:35;;;;;;;;;51.00;34.25;;;;;5.22;67.75;100920.03;5096684;27;45419;-47
2022/12/04 09:36:02;;;;;;;;;48.00;35.25;;;;;5.22;67.31;100920.91;5099917;27;45364;-51
2022/12/04 09:38:28;;;;;;;;;40.00;37.00;;;;;5.22;68.20;100925.31;5100571;27;45467;-49
2022/12/04 09:41:11;;;;;;;;;50.25;39.50;;;;;5.25;68.13;100933.03;5099983;27;45319;-50
2022/12/04 09:43:49;;;;;;;;;51.75;40.00;;;;;5.27;67.57;100936.41;5100125;27;45309;-47
2022/12/04 09:46:23;;;;;;;;;39.50;31.75;;;;;5.29;68.22;100945.03;5100099;27;45567;-48
2022/12/04 09:48:50;;;;;;;;;59.50;43.00;;;;;5.31;67.94;100939.66;5100287;27;45379;-47
2022/12/04 09:51:20;;;;;;;;;45.25;34.75;;;;;5.31;67.84;100939.66;5099991;27;47693;-47
2022/12/04 09:53:54;;;;;;;;;43.25;39.00;;;;;5.35;68.22;100946.41;5099628;27;45462;-48
2022/12/04 09:56:24;;;;;;;;;50.00;34.75;;;;;5.37;67.62;100941.88;5100034;27;45259;-50
2022/12/04 09:58:54;;;;;;;;;41.50;33.25;;;;;5.38;67.46;100935.66;5100169;27;45415;-48
2022/12/04 10:01:25;;;;;;;;;44.25;36.25;;;;;5.40;67.71;100933.75;5099851;27;47416;-50
2022/12/04 10:03:53;;;;;;;;;44.25;33.00;;;;;5.40;67.43;100929.31;5099586;27;45330;-46
2022/12/04 10:06:25;;;;;;;;;46.50;35.25;;;;;5.42;67.35;100926.56;5099933;27;45411;-49
2022/12/04 10:09:05;;;;;;;;;40.75;35.50;;;;;5.41;67.51;100928.34;5099606;27;45250;-47
2022/12/04 10:12:02;;;;;;;;;48.75;33.75;;;;;5.45;67.22;100929.00;5099673;27;46212;-49
2022/12/04 10:14:53;;;;;;;;;49.25;36.50;;;;;5.45;67.89;100916.63;5099336;27;45338;-49
2022/12/04 10:17:18;;;;;;;;;49.00;40.00;;;;;5.42;67.42;100932.69;5099609;27;45392;-47
2022/12/04 10:20:02;;;;;;;;;52.25;36.75;;;;;5.43;67.09;100930.88;5099859;27;45294;-50
2022/12/04 10:23:06;;;;;;;;;48.75;36.00;;;;;5.43;67.42;100929.06;5099401;27;47050;-55
2022/12/04 10:25:35;;;;;;;;;44.25;40.75;;;;;5.42;67.93;100926.56;5099251;27;45422;-61
2022/12/04 10:28:06;;;;;;;;;54.50;42.25;;;;;5.43;67.73;100921.16;5100088;27;45491;-60
2022/12/04 10:30:35;;;;;;;;;59.50;38.50;;;;;5.44;68.12;100919.41;5100316;27;45377;-61
2022/12/04 10:33:13;;;;;;;;;47.75;39.75;;;;;5.44;67.49;100914.13;5099606;27;45603;-59
2022/12/04 10:35:42;;;;;;;;;59.00;39.75;;;;;5.45;67.93;100908.72;5099381;27;45284;-55
2022/12/04 10:38:22;;;;;;;;;52.25;39.25;;;;;5.46;67.93;100914.84;5099563;27;45283;-59
2022/12/04 10:40:56;;;;;;;;;50.00;39.25;;;;;5.47;67.55;100917.34;5099418;27;45446;-55
2022/12/04 10:43:38;;;;;;;;;50.50;34.50;;;;;5.43;67.45;100904.50;5099169;27;46398;-58
2022/12/04 10:46:05;;;;;;;;;53.75;42.25;;;;;5.48;67.71;100918.22;5097725;27;45435;-61
2022/12/04 10:48:36;;;;;;;;;45.50;35.75;;;;;5.48;68.21;100912.94;5099028;27;45343;-48
2022/12/04 10:51:02;;;;;;;;;54.50;40.00;;;;;5.50;67.88;100921.59;5099396;27;45372;-60
2022/12/04 10:53:34;;;;;;;;;57.00;44.50;;;;;5.51;67.45;100923.25;5098913;27;46315;-59
2022/12/04 10:56:16;;;;;;;;;54.00;40.50;;;;;5.51;68.05;100917.97;5098944;27;45264;-59
2022/12/04 10:58:43;;;;;;;;;47.75;38.50;;;;;5.50;68.09;100929.50;5099015;27;45349;-57
2022/12/04 11:01:13;;;;;;;;;55.25;39.25;;;;;5.48;68.03;100912.94;5098900;27;45460;-61
2022/12/04 11:03:43;;;;;;;;;60.50;39.25;;;;;5.51;68.49;100905.63;5098746;27;46024;-60
2022/12/04 11:06:09;;;;;;;;;55.25;37.50;;;;;5.53;68.16;100915.25;5097456;27;45351;-58
2022/12/04 11:08:42;;;;;;;;;53.50;40.50;;;;;5.56;68.22;100909.72;5098570;27;45322;-61
2022/12/04 11:11:11;;;;;;;;;59.75;42.00;;;;;5.57;68.49;100912.28;5098678;27;45507;-60
2022/12/04 11:13:38;;;;;;;;;47.25;38.50;;;;;5.59;67.91;100920.91;5098802;27;45392;-58
2022/12/04 11:16:05;;;;;;;;;50.50;36.00;;;;;5.60;67.66;100921.75;5098767;27;45500;-60
2022/12/04 11:18:45;;;;;;;;;50.00;38.00;;;;;5.59;67.93;100905.09;5098762;27;45264;-55
2022/12/04 11:21:24;;;;;;;;;50.50;42.00;;;;;5.59;68.40;100901.59;5098907;27;45385;-58
2022/12/04 11:23:51;;;;;;;;;48.25;40.75;;;;;5.63;68.28;100916.25;5098490;27;46331;-59
2022/12/04 11:26:32;;;;;;;;;57.00;41.50;;;;;5.61;68.20;100902.34;5098524;27;45392;-61
2022/12/04 11:29:00;;;;;;;;;49.00;38.00;;;;;5.58;68.27;100887.56;5098454;27;45173;-61
2022/12/04 11:31:26;;;;;;;;;51.50;38.00;;;;;5.67;67.95;100901.91;5098581;27;45407;-53
2022/12/04 11:34:00;;;;;;;;;55.50;36.50;;;;;5.69;68.23;100892.09;5098274;27;46173;-54
2022/12/04 11:36:41;;;;;;;;;50.75;37.75;;;;;5.68;68.58;100895.66;5098224;27;45447;-57
2022/12/04 11:39:14;;;;;;;;;53.00;39.00;;;;;5.71;68.36;100898.91;5098480;27;45213;-55